Time;durP1;ratioP1;P1;durP2;ratioP2;P2;SDS_P1;SDS_P2;PMS_P1;PMS_P2;Temp;Humidity;BMP_temperature;BMP_pressure;BME280_temperature;BME280_humidity;BME280_pressure;Samples;Min_cycle;Max_cycle;Signal;HPM_P1;HPM_P2
2021/04/02 00:00:29;;;;;;;0.63;0.50;;;14.80;57.30;;;;;;5103120;28;20133;-38
2021/04/02 00:02:56;;;;;;;0.77;0.50;;;14.80;57.40;;;;;;5137807;27;20071;-38
2021/04/02 00:05:22;;;;;;;0.70;0.60;;;14.80;57.40;;;;;;5144366;27;20132;-38
2021/04/02 00:07:48;;;;;;;0.60;0.60;;;14.80;57.40;;;;;;5144153;27;20041;-38
2021/04/02 00:10:21;;;;;;;1.35;0.70;;;14.70;57.50;;;;;;5143837;27;20047;-38
2021/04/02 00:12:47;;;;;;;0.95;0.70;;;14.70;57.50;;;;;;5132080;27;20024;-38
2021/04/02 00:15:18;;;;;;;0.50;0.40;;;14.70;57.40;;;;;;5123338;28;20039;-38
2021/04/02 00:17:44;;;;;;;0.70;0.50;;;14.70;57.60;;;;;;5088524;28;20091;-38
2021/04/02 00:20:12;;;;;;;2.63;0.70;;;14.70;57.60;;;;;;5123647;28;20028;-38
2021/04/02 00:22:39;;;;;;;0.85;0.60;;;14.70;58.10;;;;;;5123415;28;20275;-38
2021/04/02 00:25:05;;;;;;;0.68;0.60;;;14.70;57.60;;;;;;5124831;27;20020;-38
2021/04/02 00:27:31;;;;;;;1.07;0.57;;;14.60;57.60;;;;;;5143900;27;20023;-38
2021/04/02 00:29:57;;;;;;;0.63;0.63;;;14.60;57.50;;;;;;5143804;27;20023;-39
2021/04/02 00:32:26;;;;;;;0.70;0.70;;;14.60;57.60;;;;;;5132304;27;20015;-38
2021/04/02 00:34:53;;;;;;;1.00;0.60;;;14.60;57.50;;;;;;5139481;27;20172;-38
2021/04/02 00:37:19;;;;;;;0.90;0.70;;;14.60;57.80;;;;;;5143806;27;20043;-38
2021/04/02 00:39:47;;;;;;;0.70;0.60;;;14.50;57.80;;;;;;5159719;27;20035;-39
2021/04/02 00:42:13;;;;;;;0.60;0.60;;;14.50;57.60;;;;;;5143579;27;20031;-38
2021/04/02 00:44:39;;;;;;;1.02;0.70;;;14.50;57.90;;;;;;5143423;27;20051;-38
2021/04/02 00:47:05;;;;;;;1.17;0.60;;;14.50;57.70;;;;;;5143731;27;20031;-38
2021/04/02 00:49:31;;;;;;;0.60;0.60;;;14.50;57.80;;;;;;5143641;27;20019;-38
2021/04/02 00:51:58;;;;;;;0.77;0.60;;;14.50;58.40;;;;;;5142520;28;20023;-38
2021/04/02 00:54:24;;;;;;;0.93;0.70;;;14.40;57.70;;;;;;5122817;28;20032;-38
2021/04/02 00:56:50;;;;;;;0.55;0.55;;;14.40;57.80;;;;;;5124599;28;20533;-38
2021/04/02 00:59:16;;;;;;;1.25;0.70;;;14.40;57.90;;;;;;5109073;28;20051;-42
2021/04/02 01:01:42;;;;;;;0.70;0.63;;;14.40;57.90;;;;;;5134203;27;20027;-39
2021/04/02 01:04:08;;;;;;;0.60;0.60;;;14.40;57.80;;;;;;5129103;27;20026;-39
2021/04/02 01:06:34;;;;;;;1.15;0.60;;;14.40;58.10;;;;;;5147854;27;20038;-39
2021/04/02 01:09:00;;;;;;;0.73;0.73;;;14.30;57.90;;;;;;5147685;27;20068;-38
2021/04/02 01:11:27;;;;;;;1.30;0.70;;;14.30;58.00;;;;;;5138105;27;20020;-39
2021/04/02 01:13:55;;;;;;;1.05;0.60;;;14.30;58.00;;;;;;5126625;28;20043;-39
2021/04/02 01:16:22;;;;;;;1.02;0.70;;;14.30;58.10;;;;;;5126974;28;20780;-39
2021/04/02 01:18:57;;;;;;;0.65;0.57;;;14.30;58.60;;;;;;5127079;28;20049;-39
2021/04/02 01:21:29;;;;;;;0.65;0.60;;;14.30;58.10;;;;;;5129516;27;20028;-39
2021/04/02 01:24:00;;;;;;;0.95;0.75;;;14.30;58.20;;;;;;5126650;28;20062;-38
2021/04/02 01:26:46;;;;;;;1.58;0.60;;;14.30;58.20;;;;;;5121268;27;20530;-38
2021/04/02 01:29:25;;;;;;;0.60;0.50;;;14.20;58.30;;;;;;5129001;27;20035;-39
2021/04/02 01:31:54;;;;;;;0.70;0.70;;;14.20;58.20;;;;;;5138646;27;20031;-39
2021/04/02 01:34:22;;;;;;;0.75;0.70;;;14.20;58.20;;;;;;5126385;28;20031;-39
2021/04/02 01:36:49;;;;;;;1.52;0.82;;;14.20;58.30;;;;;;5091611;28;20042;-38
2021/04/02 01:39:15;;;;;;;;;;;14.20;58.40;;;;;;5126944;28;20038;-38
2021/04/02 01:41:43;;;;;;;0.88;0.70;;;14.10;58.30;;;;;;5108092;28;19939;-39
2021/04/02 01:44:09;;;;;;;0.70;0.63;;;14.10;58.40;;;;;;5107770;28;20115;-39
2021/04/02 01:46:39;;;;;;;0.70;0.57;;;14.10;58.50;;;;;;5107882;28;20031;-39
2021/04/02 01:49:06;;;;;;;0.60;0.55;;;14.10;58.60;;;;;;5120580;27;20453;-39
2021/04/02 01:51:32;;;;;;;0.90;0.70;;;14.10;58.50;;;;;;5146848;27;20065;-38
2021/04/02 01:53:59;;;;;;;1.00;0.70;;;14.10;58.50;;;;;;5110447;28;20176;-39
2021/04/02 01:56:25;;;;;;;;;;;14.10;58.50;;;;;;5126701;28;20548;-38
2021/04/02 01:58:52;;;;;;;0.73;0.63;;;14.00;58.50;;;;;;5142078;27;19922;-39
2021/04/02 02:01:21;;;;;;;0.88;0.70;;;14.00;58.50;;;;;;5111404;27;20086;-38
2021/04/02 02:03:53;;;;;;;0.73;0.60;;;14.00;58.50;;;;;;5146702;27;20059;-39
2021/04/02 02:06:19;;;;;;;0.60;0.60;;;13.90;58.60;;;;;;5127766;27;20056;-38
2021/04/02 02:08:45;;;;;;;0.65;0.63;;;13.90;58.60;;;;;;5110931;27;20053;-39
2021/04/02 02:11:16;;;;;;;1.20;0.70;;;13.90;58.50;;;;;;5127901;27;20040;-39
2021/04/02 02:13:46;;;;;;;0.82;0.70;;;13.90;58.60;;;;;;5146423;27;20046;-39
2021/04/02 02:16:12;;;;;;;0.60;0.55;;;13.90;58.70;;;;;;5127415;27;20027;-39
2021/04/02 02:18:38;;;;;;;0.90;0.60;;;13.90;58.60;;;;;;5107409;28;20043;-39
2021/04/02 02:21:09;;;;;;;1.58;0.88;;;13.90;58.60;;;;;;5107513;28;20023;-39
2021/04/02 02:23:35;;;;;;;0.68;0.65;;;13.80;58.70;;;;;;5093030;28;20029;-38
2021/04/02 02:26:04;;;;;;;1.13;0.70;;;13.80;58.80;;;;;;5149095;27;20095;-39
2021/04/02 02:28:30;;;;;;;0.65;0.65;;;13.80;59.40;;;;;;5146179;27;20020;-38
2021/04/02 02:30:56;;;;;;;0.63;0.63;;;13.80;58.70;;;;;;5126955;27;20110;-39
2021/04/02 02:33:22;;;;;;;0.60;0.60;;;13.80;58.90;;;;;;5107300;28;20445;-39
2021/04/02 02:35:48;;;;;;;0.93;0.60;;;13.80;59.00;;;;;;5106915;28;20036;-39
2021/04/02 02:38:15;;;;;;;0.82;0.80;;;13.80;58.90;;;;;;5125589;28;20038;-40
2021/04/02 02:40:41;;;;;;;0.88;0.60;;;13.70;59.00;;;;;;5125158;28;20027;-38
2021/04/02 02:43:07;;;;;;;0.90;0.73;;;13.80;59.00;;;;;;5125473;28;20062;-38
2021/04/02 02:45:34;;;;;;;0.73;0.73;;;13.70;58.90;;;;;;5125005;28;20023;-39
2021/04/02 02:48:00;;;;;;;0.60;0.60;;;13.70;59.00;;;;;;5125369;28;20094;-38
2021/04/02 02:50:30;;;;;;;1.08;0.70;;;13.70;59.00;;;;;;5125297;28;20756;-38
2021/04/02 02:52:56;;;;;;;1.05;0.85;;;13.70;59.10;;;;;;5125083;28;20031;-39
2021/04/02 02:55:24;;;;;;;0.90;0.70;;;13.70;59.00;;;;;;5106060;28;20031;-39
2021/04/02 02:57:50;;;;;;;0.75;0.73;;;13.60;58.90;;;;;;5106579;28;20083;-39
2021/04/02 03:00:18;;;;;;;1.03;0.80;;;13.60;59.20;;;;;;5106422;28;20083;-39
2021/04/02 03:02:49;;;;;;;1.05;0.60;;;13.60;59.00;;;;;;5122683;27;20059;-39
2021/04/02 03:05:17;;;;;;;0.73;0.73;;;13.60;59.10;;;;;;5127304;27;20027;-39
2021/04/02 03:07:43;;;;;;;0.73;0.73;;;13.60;59.30;;;;;;5126953;27;20066;-39
2021/04/02 03:10:10;;;;;;;0.93;0.90;;;13.50;59.30;;;;;;5126792;27;20054;-39
2021/04/02 03:12:37;;;;;;;0.88;0.70;;;13.50;59.20;;;;;;5145140;27;20263;-38
2021/04/02 03:15:04;;;;;;;0.75;0.75;;;13.50;59.40;;;;;;5126598;27;20089;-38
2021/04/02 03:17:30;;;;;;;1.23;1.00;;;13.50;59.40;;;;;;5122621;28;20135;-38
2021/04/02 03:19:56;;;;;;;1.00;0.90;;;13.50;59.40;;;;;;5105434;28;20028;-38
2021/04/02 03:22:24;;;;;;;0.68;0.68;;;13.50;59.30;;;;;;5089427;28;20028;-38
2021/04/02 03:24:50;;;;;;;0.77;0.70;;;13.50;59.50;;;;;;5106430;28;20019;-39
2021/04/02 03:27:16;;;;;;;0.80;0.80;;;13.40;59.40;;;;;;5125897;27;20125;-38
2021/04/02 03:29:42;;;;;;;0.80;0.80;;;13.40;59.40;;;;;;5141753;27;20099;-38
2021/04/02 03:32:10;;;;;;;1.20;0.90;;;13.40;59.40;;;;;;5133957;27;20023;-38
2021/04/02 03:34:36;;;;;;;0.88;0.82;;;13.40;59.60;;;;;;5106290;28;20082;-38
2021/04/02 03:37:04;;;;;;;0.70;0.70;;;13.40;59.60;;;;;;5124100;28;20519;-39
2021/04/02 03:39:31;;;;;;;0.85;0.73;;;13.40;59.60;;;;;;5105853;28;20028;-39
2021/04/02 03:41:59;;;;;;;0.80;0.60;;;13.30;59.70;;;;;;5123913;28;20045;-38
2021/04/02 03:44:28;;;;;;;1.58;0.80;;;13.40;59.70;;;;;;5105902;28;20283;-39
2021/04/02 03:46:54;;;;;;;1.33;0.85;;;13.40;59.70;;;;;;5088919;28;20062;-39
2021/04/02 03:49:26;;;;;;;1.63;0.60;;;13.30;59.60;;;;;;5105805;28;20027;-39
2021/04/02 03:51:54;;;;;;;1.10;0.80;;;13.30;59.70;;;;;;5107582;27;20075;-39
2021/04/02 03:54:21;;;;;;;1.00;0.80;;;13.30;59.80;;;;;;5085277;28;20040;-39
2021/04/02 03:56:48;;;;;;;1.10;1.00;;;13.30;59.70;;;;;;5135143;27;20130;-39
2021/04/02 03:59:14;;;;;;;0.60;0.60;;;13.20;59.70;;;;;;5144476;27;20059;-39
2021/04/02 04:01:43;;;;;;;1.13;0.93;;;13.20;59.80;;;;;;5137388;27;20049;-38
2021/04/02 04:04:09;;;;;;;1.10;0.90;;;13.20;59.90;;;;;;5105518;28;20026;-44
2021/04/02 04:06:36;;;;;;;0.82;0.70;;;13.20;59.90;;;;;;5105338;28;20054;-39
2021/04/02 04:09:07;;;;;;;1.53;0.80;;;13.20;60.00;;;;;;5105151;28;20047;-39
2021/04/02 04:11:33;;;;;;;1.10;0.82;;;13.20;59.90;;;;;;5123493;28;20091;-39
2021/04/02 04:14:00;;;;;;;1.10;0.77;;;13.20;59.90;;;;;;5105337;28;20027;-39
2021/04/02 04:16:26;;;;;;;0.80;0.70;;;13.20;59.90;;;;;;5105059;28;20091;-39
2021/04/02 04:18:56;;;;;;;0.80;0.73;;;13.10;59.90;;;;;;5123456;28;20057;-41
2021/04/02 04:21:23;;;;;;;0.95;0.88;;;13.10;60.10;;;;;;5105126;28;20024;-39
2021/04/02 04:23:50;;;;;;;0.73;0.73;;;13.10;60.10;;;;;;5120077;27;20047;-38
2021/04/02 04:26:16;;;;;;;1.00;0.90;;;13.10;60.20;;;;;;5134829;27;20031;-39
2021/04/02 04:28:42;;;;;;;1.08;0.90;;;13.10;60.10;;;;;;5143901;27;20090;-39
2021/04/02 04:31:09;;;;;;;1.17;0.90;;;13.00;60.10;;;;;;5123101;27;20019;-39
2021/04/02 04:33:36;;;;;;;;;;;13.10;60.10;;;;;;5105453;28;20043;-39
2021/04/02 04:36:03;;;;;;;2.30;0.80;;;13.10;60.10;;;;;;5123280;28;19912;-39
2021/04/02 04:38:29;;;;;;;1.10;0.90;;;13.00;60.40;;;;;;5105041;28;20111;-39
2021/04/02 04:40:55;;;;;;;0.80;0.70;;;13.00;60.30;;;;;;5088154;28;20031;-39
2021/04/02 04:43:22;;;;;;;0.57;0.57;;;13.00;60.90;;;;;;5123117;28;20023;-39
2021/04/02 04:45:48;;;;;;;1.10;0.90;;;13.00;60.30;;;;;;5087907;28;20019;-39
2021/04/02 04:48:14;;;;;;;1.00;0.85;;;13.00;60.40;;;;;;5104447;28;20026;-39
2021/04/02 04:50:40;;;;;;;1.15;0.90;;;13.00;60.40;;;;;;5087972;28;20027;-39
2021/04/02 04:53:21;;;;;;;2.97;1.13;;;13.00;60.40;;;;;;5104540;28;20028;-39
2021/04/02 04:55:47;;;;;;;1.25;0.93;;;12.90;60.30;;;;;;5112193;28;20063;-39
2021/04/02 04:58:15;;;;;;;1.00;0.90;;;12.90;60.50;;;;;;5108110;28;20688;-39
2021/04/02 05:00:42;;;;;;;1.00;0.90;;;12.90;60.50;;;;;;5125337;28;20106;-39
2021/04/02 05:03:12;;;;;;;0.95;0.80;;;12.90;60.50;;;;;;5124150;28;20058;-39
2021/04/02 05:05:40;;;;;;;0.90;0.70;;;12.90;60.50;;;;;;5104691;28;20369;-39
2021/04/02 05:08:07;;;;;;;0.80;0.80;;;12.80;60.40;;;;;;5122640;28;20035;-39
2021/04/02 05:10:33;;;;;;;1.17;0.70;;;12.80;60.50;;;;;;5122772;28;20032;-38
2021/04/02 05:13:00;;;;;;;1.10;1.00;;;12.80;60.50;;;;;;5104372;28;20008;-39
2021/04/02 05:15:27;;;;;;;0.95;0.85;;;12.80;60.50;;;;;;5104581;28;20122;-39
2021/04/02 05:17:53;;;;;;;1.40;1.00;;;12.80;60.60;;;;;;5104284;28;20057;-38
2021/04/02 05:20:41;;;;;;;1.08;0.90;;;12.80;60.60;;;;;;5123061;28;20157;-39
2021/04/02 05:23:10;;;;;;;1.27;0.88;;;12.80;60.60;;;;;;5134365;28;20624;-38
2021/04/02 05:25:36;;;;;;;1.25;0.77;;;12.80;60.70;;;;;;5137085;28;20028;-39
2021/04/02 05:28:03;;;;;;;0.65;0.65;;;12.80;60.70;;;;;;5122469;28;20046;-39
2021/04/02 05:30:30;;;;;;;1.10;0.93;;;12.70;60.60;;;;;;5104383;28;20035;-39
2021/04/02 05:32:57;;;;;;;0.67;0.63;;;12.70;60.70;;;;;;5121773;28;20035;-39
2021/04/02 05:35:23;;;;;;;1.00;0.90;;;12.70;60.80;;;;;;5124729;28;20862;-38
2021/04/02 05:37:49;;;;;;;1.25;0.80;;;12.70;60.80;;;;;;5143075;28;20266;-39
2021/04/02 05:40:16;;;;;;;2.58;0.95;;;12.60;60.80;;;;;;5143122;28;20027;-39
2021/04/02 05:43:13;;;;;;;1.08;0.75;;;12.70;60.90;;;;;;5144607;27;20042;-39
2021/04/02 05:45:39;;;;;;;0.75;0.75;;;12.70;61.00;;;;;;5128673;27;20041;-39
2021/04/02 05:48:07;;;;;;;2.67;1.10;;;12.70;60.90;;;;;;5146692;27;20036;-38
2021/04/02 05:50:34;;;;;;;2.05;0.80;;;12.60;60.90;;;;;;5146981;27;20035;-38
2021/04/02 05:53:05;;;;;;;0.82;0.77;;;12.60;61.00;;;;;;5118754;28;20023;-42
2021/04/02 05:55:34;;;;;;;0.70;0.70;;;12.60;61.80;;;;;;5131682;27;20043;-39
2021/04/02 05:58:01;;;;;;;0.85;0.85;;;12.60;61.00;;;;;;5144954;27;20024;-38
2021/04/02 06:00:28;;;;;;;1.73;0.90;;;12.60;61.20;;;;;;5126840;27;20052;-39
2021/04/02 06:02:55;;;;;;;0.80;0.70;;;12.50;61.10;;;;;;5111028;28;20111;-39
2021/04/02 06:05:21;;;;;;;1.13;0.75;;;12.50;61.10;;;;;;5108025;28;20019;-38
2021/04/02 06:07:47;;;;;;;0.82;0.80;;;12.50;61.20;;;;;;5125956;27;20054;-38
2021/04/02 06:10:14;;;;;;;1.15;0.80;;;12.50;61.30;;;;;;5107395;28;20043;-38
2021/04/02 06:12:41;;;;;;;2.28;0.90;;;12.50;61.30;;;;;;5126024;28;20039;-39
2021/04/02 06:15:07;;;;;;;;;;;12.50;61.30;;;;;;5108063;28;20063;-39
2021/04/02 06:18:08;;;;;;;1.25;0.85;;;12.50;61.30;;;;;;5125811;28;19914;-38
2021/04/02 06:20:47;;;;;;;1.13;0.90;;;12.50;61.50;;;;;;5124893;28;20110;-39
2021/04/02 06:23:18;;;;;;;2.05;0.80;;;12.40;61.40;;;;;;5116262;27;20030;-39
2021/04/02 06:25:47;;;;;;;1.20;1.00;;;12.40;61.50;;;;;;5139008;27;20027;-39
2021/04/02 06:28:32;;;;;;;0.77;0.68;;;12.40;61.60;;;;;;5125301;28;20098;-39
2021/04/02 06:31:03;;;;;;;0.80;0.80;;;12.40;61.50;;;;;;5108109;27;20033;-38
2021/04/02 06:33:53;;;;;;;0.90;0.90;;;12.40;61.50;;;;;;5146000;27;20034;-38
2021/04/02 06:36:29;;;;;;;1.75;0.80;;;12.30;61.60;;;;;;5135277;27;20043;-39
2021/04/02 06:38:56;;;;;;;1.27;1.02;;;12.30;61.70;;;;;;5146060;27;20084;-39
2021/04/02 06:41:23;;;;;;;2.58;0.80;;;12.30;61.70;;;;;;5146033;27;20031;-39
2021/04/02 06:43:51;;;;;;;0.95;0.90;;;12.30;61.80;;;;;;5145909;27;20100;-39
2021/04/02 06:46:23;;;;;;;0.90;0.82;;;12.30;61.80;;;;;;5145784;27;20027;-39
2021/04/02 06:48:54;;;;;;;1.60;1.13;;;12.20;61.80;;;;;;5145640;27;20031;-38
2021/04/02 06:51:22;;;;;;;1.00;0.90;;;12.20;61.80;;;;;;5145843;27;20042;-39
2021/04/02 06:53:51;;;;;;;0.82;0.80;;;12.20;61.80;;;;;;5127840;27;20066;-38
2021/04/02 06:56:17;;;;;;;1.63;1.17;;;12.20;61.70;;;;;;5134529;27;20034;-38
2021/04/02 06:58:44;;;;;;;1.30;0.93;;;12.20;61.70;;;;;;5106923;28;20016;-38
2021/04/02 07:01:13;;;;;;;0.77;0.77;;;12.20;61.80;;;;;;5122727;28;20042;-38
2021/04/02 07:03:40;;;;;;;1.00;0.98;;;12.20;61.80;;;;;;5104620;28;20617;-39
2021/04/02 07:06:06;;;;;;;1.25;1.10;;;12.20;61.80;;;;;;5086500;28;20020;-38
2021/04/02 07:08:33;;;;;;;2.03;0.82;;;12.20;61.90;;;;;;5086115;28;20052;-38
2021/04/02 07:10:59;;;;;;;1.27;1.00;;;12.20;61.90;;;;;;5104498;28;20385;-38
2021/04/02 07:13:30;;;;;;;1.42;0.77;;;12.10;61.90;;;;;;5086151;28;20087;-38
2021/04/02 07:15:57;;;;;;;1.17;0.73;;;12.20;62.00;;;;;;5100482;28;20036;-38
2021/04/02 07:18:23;;;;;;;0.82;0.82;;;12.10;61.90;;;;;;5106368;28;20028;-39
2021/04/02 07:20:52;;;;;;;1.80;1.00;;;12.10;62.00;;;;;;5090223;28;20079;-39
2021/04/02 07:23:18;;;;;;;1.30;1.10;;;12.10;62.20;;;;;;5124640;28;20735;-38
2021/04/02 07:25:44;;;;;;;1.10;0.90;;;12.10;62.10;;;;;;5106810;28;20045;-38
2021/04/02 07:28:10;;;;;;;1.25;1.08;;;12.00;62.20;;;;;;5141699;27;20079;-39
2021/04/02 07:30:37;;;;;;;1.10;0.90;;;12.00;62.20;;;;;;5145133;27;20023;-40
2021/04/02 07:33:10;;;;;;;0.90;0.80;;;12.00;62.20;;;;;;5108192;28;20042;-39
2021/04/02 07:35:37;;;;;;;1.15;0.90;;;12.00;62.30;;;;;;5106113;28;20107;-39
2021/04/02 07:38:04;;;;;;;1.00;0.90;;;12.00;63.00;;;;;;5124471;28;20166;-38
2021/04/02 07:40:32;;;;;;;1.10;1.00;;;12.00;62.30;;;;;;5124197;28;20506;-38
2021/04/02 07:43:00;;;;;;;1.63;0.80;;;12.00;62.30;;;;;;5124301;28;20744;-38
2021/04/02 07:45:32;;;;;;;1.23;0.90;;;11.90;62.30;;;;;;5124020;28;20023;-39
2021/04/02 07:48:12;;;;;;;1.48;0.95;;;12.00;62.40;;;;;;5106166;28;20032;-38
2021/04/02 07:50:57;;;;;;;1.15;0.93;;;11.90;62.40;;;;;;5124201;28;20028;-38
2021/04/02 07:53:26;;;;;;;2.85;1.35;;;11.90;62.40;;;;;;5124127;28;20028;-38
2021/04/02 07:56:07;;;;;;;1.23;0.90;;;11.90;62.50;;;;;;5123618;28;20044;-38
2021/04/02 07:58:33;;;;;;;1.30;1.10;;;11.80;62.50;;;;;;5125768;27;20027;-38
2021/04/02 08:01:00;;;;;;;1.50;0.98;;;11.80;62.50;;;;;;5122103;27;20032;-38
2021/04/02 08:03:27;;;;;;;1.08;0.80;;;11.80;63.30;;;;;;5105455;28;20023;-38
2021/04/02 08:06:04;;;;;;;;;;;11.80;62.60;;;;;;5123851;28;20114;-38
2021/04/02 08:09:00;;;;;;;1.10;1.00;;;11.80;62.50;;;;;;5105385;28;20308;-38
2021/04/02 08:11:37;;;;;;;1.95;0.80;;;11.80;62.60;;;;;;5102634;28;20080;-38
2021/04/02 08:14:11;;;;;;;1.05;0.95;;;11.80;62.80;;;;;;5123540;28;20586;-38
2021/04/02 08:16:48;;;;;;;1.10;1.00;;;11.80;62.80;;;;;;5123451;28;20459;-38
2021/04/02 08:19:31;;;;;;;1.17;0.93;;;11.70;62.70;;;;;;5105378;28;20026;-38
2021/04/02 08:22:01;;;;;;;0.93;0.93;;;11.70;62.90;;;;;;5123805;27;20032;-38
2021/04/02 08:24:31;;;;;;;2.15;1.40;;;11.70;62.80;;;;;;5141907;27;20097;-38
2021/04/02 08:26:58;;;;;;;1.00;0.80;;;11.70;63.00;;;;;;5136802;27;20028;-38
2021/04/02 08:29:25;;;;;;;1.42;1.05;;;11.70;63.00;;;;;;5105131;28;20020;-38
2021/04/02 08:31:52;;;;;;;0.90;0.90;;;11.70;63.00;;;;;;5112091;28;20027;-38
2021/04/02 08:34:22;;;;;;;1.00;0.90;;;11.70;63.00;;;;;;5123232;28;20089;-38
2021/04/02 08:36:49;;;;;;;1.08;0.98;;;11.70;62.90;;;;;;5123052;28;20032;-38
2021/04/02 08:39:17;;;;;;;0.95;0.77;;;11.60;62.90;;;;;;5123320;28;20028;-38
2021/04/02 08:41:44;;;;;;;0.95;0.90;;;11.60;62.90;;;;;;5123394;28;20035;-38
2021/04/02 08:44:10;;;;;;;1.02;0.90;;;11.60;63.00;;;;;;5123105;28;20031;-38
2021/04/02 08:46:46;;;;;;;1.10;0.90;;;11.60;63.10;;;;;;5123160;28;20038;-38
2021/04/02 08:49:15;;;;;;;1.35;1.00;;;11.60;63.00;;;;;;5123327;28;20191;-38
2021/04/02 08:51:47;;;;;;;1.38;1.08;;;11.60;63.00;;;;;;5123355;28;20024;-39
2021/04/02 08:54:20;;;;;;;0.90;0.90;;;11.50;63.10;;;;;;5122888;28;20046;-38
2021/04/02 08:56:49;;;;;;;1.30;0.98;;;11.50;63.20;;;;;;5128238;28;20172;-38
2021/04/02 08:59:16;;;;;;;1.00;0.90;;;11.50;63.20;;;;;;5125201;28;20029;-38
2021/04/02 09:01:46;;;;;;;1.23;0.95;;;11.50;63.20;;;;;;5136570;28;20023;-38
2021/04/02 09:04:13;;;;;;;1.15;1.05;;;11.50;63.20;;;;;;5104759;28;20055;-38
2021/04/02 09:06:40;;;;;;;0.80;0.80;;;11.50;63.30;;;;;;5122909;28;20034;-38
2021/04/02 09:09:28;;;;;;;1.13;0.80;;;11.40;63.10;;;;;;5104780;28;20171;-39
2021/04/02 09:11:54;;;;;;;0.73;0.73;;;11.40;63.20;;;;;;5122925;28;20035;-39
2021/04/02 09:14:21;;;;;;;0.80;0.80;;;11.40;63.20;;;;;;5122899;28;20059;-38
2021/04/02 09:16:48;;;;;;;1.17;1.02;;;11.40;63.30;;;;;;5122713;28;20035;-38
2021/04/02 09:19:15;;;;;;;0.90;0.80;;;11.40;63.30;;;;;;5126591;28;20027;-39
2021/04/02 09:21:42;;;;;;;1.00;0.90;;;11.40;63.40;;;;;;5127119;28;20323;-39
2021/04/02 09:24:08;;;;;;;0.95;0.85;;;11.40;63.40;;;;;;5108637;28;20028;-38
2021/04/02 09:26:36;;;;;;;1.33;0.97;;;11.40;63.40;;;;;;5112255;27;20041;-39
2021/04/02 09:29:03;;;;;;;2.65;0.98;;;11.30;63.40;;;;;;5143780;27;20053;-38
2021/04/02 09:31:32;;;;;;;1.27;1.17;;;11.30;63.40;;;;;;5142053;27;20035;-38
2021/04/02 09:33:59;;;;;;;1.33;1.10;;;11.30;64.20;;;;;;5126696;28;20286;-38
2021/04/02 09:36:27;;;;;;;1.35;1.00;;;11.30;63.60;;;;;;5126940;28;20104;-38
2021/04/02 09:39:03;;;;;;;;;;;11.30;63.50;;;;;;5126855;28;20020;-38
2021/04/02 09:41:29;;;;;;;0.70;0.68;;;11.20;63.60;;;;;;5126625;28;19986;-38
2021/04/02 09:43:55;;;;;;;0.70;0.70;;;11.20;63.70;;;;;;5126374;28;20027;-39
2021/04/02 09:46:32;;;;;;;1.33;1.00;;;11.20;63.80;;;;;;5126638;28;20032;-38
2021/04/02 09:49:03;;;;;;;0.80;0.70;;;11.20;63.80;;;;;;5126501;28;20031;-38
2021/04/02 09:51:29;;;;;;;2.28;0.90;;;11.20;63.80;;;;;;5108333;28;20087;-38
2021/04/02 09:53:56;;;;;;;1.27;1.17;;;11.20;63.80;;;;;;5108162;28;20134;-38
2021/04/02 09:56:22;;;;;;;1.77;0.98;;;11.10;63.90;;;;;;5128309;27;20023;-38
2021/04/02 09:58:48;;;;;;;1.27;1.10;;;11.10;63.90;;;;;;5140623;27;20063;-38
2021/04/02 10:01:14;;;;;;;1.00;0.88;;;11.10;64.00;;;;;;5129388;27;20084;-38
2021/04/02 10:03:41;;;;;;;1.00;0.90;;;11.10;64.00;;;;;;5111640;27;20613;-38
2021/04/02 10:06:07;;;;;;;2.13;0.90;;;11.10;64.00;;;;;;5146789;27;20049;-38
2021/04/02 10:08:33;;;;;;;0.90;0.90;;;11.10;64.00;;;;;;5146312;27;20113;-38
2021/04/02 10:10:59;;;;;;;1.27;0.90;;;11.10;64.00;;;;;;5138846;27;20488;-38
2021/04/02 10:13:25;;;;;;;1.15;1.05;;;11.10;63.90;;;;;;5125807;28;20528;-38
2021/04/02 10:15:52;;;;;;;1.10;0.68;;;11.10;64.00;;;;;;5126019;28;20051;-38
2021/04/02 10:18:19;;;;;;;1.23;0.90;;;11.00;64.10;;;;;;5125851;28;20088;-38
2021/04/02 10:20:45;;;;;;;2.40;1.17;;;11.00;64.10;;;;;;5126079;28;20020;-39
2021/04/02 10:23:11;;;;;;;1.30;1.00;;;11.00;64.20;;;;;;5125778;28;20096;-38
2021/04/02 10:25:37;;;;;;;1.20;1.10;;;11.00;64.20;;;;;;5125759;28;20031;-38
2021/04/02 10:28:03;;;;;;;2.42;0.80;;;11.00;64.20;;;;;;5141401;27;20042;-38
2021/04/02 10:30:30;;;;;;;1.45;1.00;;;11.00;64.20;;;;;;5146368;27;20020;-38
2021/04/02 10:32:56;;;;;;;0.70;0.70;;;11.00;64.20;;;;;;5131163;27;20058;-38
2021/04/02 10:35:22;;;;;;;1.10;1.00;;;10.90;64.20;;;;;;5125495;28;20043;-38
2021/04/02 10:37:48;;;;;;;1.38;1.27;;;10.90;64.20;;;;;;5125346;28;20085;-38
2021/04/02 10:40:15;;;;;;;1.80;0.93;;;10.90;64.30;;;;;;5125470;28;20031;-38
2021/04/02 10:42:41;;;;;;;1.40;0.93;;;10.90;64.30;;;;;;5125523;28;20048;-38
2021/04/02 10:45:08;;;;;;;1.35;1.25;;;10.90;64.30;;;;;;5125459;28;20043;-38
2021/04/02 10:47:34;;;;;;;1.33;1.00;;;10.90;64.30;;;;;;5125504;28;20016;-38
2021/04/02 10:50:00;;;;;;;1.15;1.00;;;10.90;64.30;;;;;;5125205;28;20268;-38
2021/04/02 10:52:26;;;;;;;1.30;0.80;;;10.90;64.50;;;;;;5125242;28;20031;-38
2021/04/02 10:54:53;;;;;;;2.10;1.13;;;10.80;64.40;;;;;;5124364;28;20087;-38
2021/04/02 10:57:19;;;;;;;2.25;1.23;;;10.80;64.30;;;;;;5125261;28;20031;-38
2021/04/02 10:59:45;;;;;;;1.20;1.10;;;10.80;64.40;;;;;;5124911;28;20088;-38
2021/04/02 11:02:11;;;;;;;1.73;0.90;;;10.80;64.40;;;;;;5136176;27;20023;-38
2021/04/02 11:04:40;;;;;;;1.45;1.10;;;10.80;64.40;;;;;;5145517;27;20043;-38
2021/04/02 11:07:07;;;;;;;1.17;0.85;;;10.80;64.50;;;;;;5145505;27;20080;-38
2021/04/02 11:09:33;;;;;;;1.17;1.00;;;10.70;64.60;;;;;;5145263;27;20074;-38
2021/04/02 11:12:00;;;;;;;1.30;1.20;;;10.70;64.60;;;;;;5126851;27;20075;-38
2021/04/02 11:14:26;;;;;;;1.13;0.75;;;10.80;64.60;;;;;;5145293;27;20035;-38
2021/04/02 11:16:52;;;;;;;1.25;1.00;;;10.70;64.50;;;;;;5145384;27;20023;-38
2021/04/02 11:19:18;;;;;;;1.00;0.90;;;10.70;64.60;;;;;;5126503;27;20090;-38
2021/04/02 11:21:44;;;;;;;0.93;0.80;;;10.70;64.70;;;;;;5145327;27;20023;-38
2021/04/02 11:24:10;;;;;;;1.15;1.00;;;10.70;64.70;;;;;;5125161;27;20020;-38
2021/04/02 11:26:37;;;;;;;1.70;1.10;;;10.70;64.70;;;;;;5124229;28;20024;-38
2021/04/02 11:29:03;;;;;;;2.35;1.00;;;10.60;64.60;;;;;;5125686;27;20020;-38
2021/04/02 11:31:29;;;;;;;1.13;1.02;;;10.60;64.70;;;;;;5106206;28;20051;-38
2021/04/02 11:33:55;;;;;;;1.10;1.00;;;10.60;64.80;;;;;;5124286;28;20020;-38
2021/04/02 11:36:21;;;;;;;1.02;0.80;;;10.60;64.90;;;;;;5124284;28;20034;-38
2021/04/02 11:38:47;;;;;;;1.83;1.05;;;10.60;64.80;;;;;;5124091;28;20031;-38
2021/04/02 11:41:14;;;;;;;1.10;0.98;;;10.60;64.90;;;;;;5123535;28;20503;-38
2021/04/02 11:43:40;;;;;;;1.20;0.93;;;10.60;64.90;;;;;;5124251;28;20023;-38
2021/04/02 11:46:06;;;;;;;1.25;0.85;;;10.60;64.90;;;;;;5124271;28;20140;-38
2021/04/02 11:48:33;;;;;;;1.00;0.90;;;10.50;65.00;;;;;;5124000;28;20031;-38
2021/04/02 11:50:59;;;;;;;1.20;1.10;;;10.50;65.00;;;;;;5123750;28;20023;-38
2021/04/02 11:53:25;;;;;;;1.13;0.75;;;10.50;65.00;;;;;;5110542;28;20051;-38
2021/04/02 11:55:51;;;;;;;1.30;1.02;;;10.50;65.00;;;;;;5116705;28;20035;-38
2021/04/02 11:58:17;;;;;;;1.27;1.15;;;10.50;65.00;;;;;;5123949;27;20038;-38
2021/04/02 12:00:44;;;;;;;1.10;1.00;;;10.50;65.00;;;;;;5124459;27;20024;-38
2021/04/02 12:03:10;;;;;;;1.17;1.08;;;10.50;65.00;;;;;;5143229;27;20549;-38
2021/04/02 12:05:36;;;;;;;1.13;1.02;;;10.40;65.00;;;;;;5144237;27;20708;-38
2021/04/02 12:08:02;;;;;;;1.00;0.90;;;10.50;65.00;;;;;;5144363;27;20023;-38
2021/04/02 12:10:29;;;;;;;1.20;1.10;;;10.40;65.00;;;;;;5143993;27;20060;-38
2021/04/02 12:12:55;;;;;;;0.85;0.82;;;10.40;65.10;;;;;;5144354;27;20104;-38
2021/04/02 12:15:21;;;;;;;0.90;0.90;;;10.40;65.10;;;;;;5144209;27;20038;-38
2021/04/02 12:17:47;;;;;;;1.17;1.08;;;10.40;65.10;;;;;;5144256;27;20019;-38
2021/04/02 12:20:15;;;;;;;1.25;1.05;;;10.40;65.10;;;;;;5143846;27;20038;-38
2021/04/02 12:22:41;;;;;;;1.00;1.00;;;10.40;65.20;;;;;;5136600;27;20027;-38
2021/04/02 12:25:10;;;;;;;1.25;0.98;;;10.40;65.30;;;;;;5124642;27;20028;-38
2021/04/02 12:27:37;;;;;;;1.17;1.05;;;10.30;65.20;;;;;;5123499;28;20015;-38
2021/04/02 12:30:05;;;;;;;1.40;1.10;;;10.30;65.30;;;;;;5104879;28;20408;-38
2021/04/02 12:32:31;;;;;;;1.90;1.00;;;10.30;65.10;;;;;;5109512;28;20051;-38
2021/04/02 12:34:57;;;;;;;1.60;1.17;;;10.30;65.10;;;;;;5103030;28;20097;-38
2021/04/02 12:37:23;;;;;;;1.60;1.00;;;10.30;65.10;;;;;;5102958;28;20032;-38
2021/04/02 12:39:49;;;;;;;1.27;0.98;;;10.30;65.10;;;;;;5102580;28;20063;-39
2021/04/02 12:42:15;;;;;;;1.27;1.17;;;10.30;65.10;;;;;;5102790;28;20581;-38
2021/04/02 12:44:42;;;;;;;0.82;0.80;;;10.30;65.00;;;;;;5103000;28;20099;-38
2021/04/02 12:47:08;;;;;;;1.10;0.95;;;10.30;65.10;;;;;;5102929;28;20039;-38
2021/04/02 12:49:34;;;;;;;1.20;1.00;;;10.30;65.10;;;;;;5102546;28;20024;-38
2021/04/02 12:52:00;;;;;;;2.73;1.10;;;10.30;65.10;;;;;;5103459;28;20032;-38